createdAt,value
2017-04-06T00:00:13.561Z,41.40
2017-04-06T00:01:11.353Z,39.70
2017-04-06T00:02:09.321Z,39.20
2017-04-06T00:03:07.132Z,39.00
2017-04-06T00:04:04.925Z,39.00
2017-04-06T00:05:02.712Z,38.20
2017-04-06T00:06:01.265Z,39.90
2017-04-06T00:06:59.152Z,41.10
2017-04-06T00:07:57.001Z,38.20
2017-04-06T00:08:55.549Z,38.80
2017-04-06T00:09:53.348Z,38.60
2017-04-06T00:10:51.897Z,38.50
2017-04-06T00:12:48.117Z,38.60
2017-04-06T00:13:45.942Z,40.30
2017-04-06T00:14:43.729Z,41.10
2017-04-06T00:15:41.630Z,39.30
2017-04-06T00:16:39.412Z,39.30
2017-04-06T00:17:37.205Z,39.10
2017-04-06T00:18:35.061Z,39.20
2017-04-06T00:19:33.577Z,39.60
2017-04-06T00:20:32.125Z,40.50
2017-04-06T00:21:29.908Z,40.20
2017-04-06T00:22:27.701Z,39.80
2017-04-06T00:23:25.493Z,39.20
2017-04-06T00:24:23.297Z,39.40
2017-04-06T00:25:21.109Z,38.30
2017-04-06T00:26:19.637Z,40.40
2017-04-06T00:27:17.429Z,40.00
2017-04-06T00:28:15.218Z,38.10
2017-04-06T00:29:12.998Z,38.10
2017-04-06T00:30:10.782Z,38.70
2017-04-06T00:32:07.033Z,38.70
2017-04-06T00:33:05.549Z,39.50
2017-04-06T00:34:03.373Z,38.90
2017-04-06T00:35:01.167Z,39.10
2017-04-06T00:35:58.949Z,39.80
2017-04-06T00:36:56.729Z,40.40
2017-04-06T00:37:54.531Z,39.20
2017-04-06T00:38:52.353Z,39.70
2017-04-06T00:39:50.193Z,39.70
2017-04-06T00:40:47.995Z,39.50
2017-04-06T00:41:45.801Z,39.60
2017-04-06T00:42:44.317Z,39.90
2017-04-06T00:43:42.147Z,39.80
2017-04-06T00:44:39.925Z,40.90
2017-04-06T00:45:37.713Z,39.10
2017-04-06T00:47:34.085Z,39.40
2017-04-06T00:48:32.153Z,40.00
2017-04-06T00:49:29.969Z,40.20
2017-04-06T00:50:27.757Z,39.10
2017-04-06T00:51:25.533Z,39.10
2017-04-06T00:52:23.336Z,39.70
2017-04-06T00:53:21.893Z,41.30
2017-04-06T00:54:19.670Z,40.70
2017-04-06T00:55:18.221Z,40.70
2017-04-06T00:56:15.997Z,40.50
2017-04-06T00:57:14.517Z,40.70
2017-04-06T00:58:12.337Z,41.80
2017-04-06T00:59:10.133Z,42.10
2017-04-06T01:00:07.936Z,41.60
2017-04-06T01:01:05.789Z,41.40
2017-04-06T01:02:04.321Z,41.30
2017-04-06T01:03:02.119Z,41.90
2017-04-06T01:04:00.672Z,41.10
2017-04-06T01:04:58.525Z,40.90
2017-04-06T01:06:54.794Z,40.60
2017-04-06T01:07:52.585Z,41.70
2017-04-06T01:08:50.405Z,41.60
2017-04-06T01:09:48.198Z,41.10
2017-04-06T01:10:46.015Z,41.70
2017-04-06T01:11:43.793Z,41.50
2017-04-06T01:12:41.601Z,41.60
2017-04-06T01:13:39.400Z,41.20
2017-04-06T01:14:37.294Z,41.70
2017-04-06T01:15:35.073Z,41.90
2017-04-06T01:16:32.889Z,42.30
2017-04-06T01:17:30.661Z,43.10
2017-04-06T01:18:28.466Z,43.40
2017-04-06T01:19:26.286Z,42.60
2017-04-06T01:20:24.105Z,43.00
2017-04-06T01:21:21.893Z,42.70
2017-04-06T01:22:20.417Z,42.80
2017-04-06T01:23:18.189Z,43.30
2017-04-06T01:24:16.037Z,42.70
2017-04-06T01:25:13.828Z,42.80
2017-04-06T01:26:11.624Z,42.60
2017-04-06T01:27:09.470Z,42.20
2017-04-06T01:28:07.249Z,42.40
2017-04-06T01:29:05.046Z,41.40
2017-04-06T01:30:02.905Z,41.20
2017-04-06T01:31:01.449Z,41.30
2017-04-06T01:31:59.209Z,40.30
2017-04-06T01:32:57.014Z,40.60
2017-04-06T01:33:54.897Z,40.90
2017-04-06T01:34:52.748Z,40.10
2017-04-06T01:35:50.551Z,40.30
2017-04-06T01:36:48.334Z,41.10
2017-04-06T01:37:46.156Z,40.20
2017-04-06T01:38:43.989Z,41.20
2017-04-06T01:39:42.574Z,40.70
2017-04-06T01:41:39.606Z,39.90
2017-04-06T01:42:37.387Z,41.10
2017-04-06T01:43:35.940Z,40.00
2017-04-06T01:44:33.755Z,40.10
2017-04-06T01:45:31.557Z,39.30
2017-04-06T01:46:29.353Z,40.60
2017-04-06T01:47:27.189Z,40.90
2017-04-06T01:48:25.866Z,40.80
2017-04-06T01:49:23.926Z,41.40
2017-04-06T01:50:22.461Z,41.70
2017-04-06T01:51:20.253Z,42.00
2017-04-06T01:52:18.829Z,42.40
2017-04-06T01:53:17.372Z,41.90
2017-04-06T01:54:15.199Z,42.40
2017-04-06T01:55:12.985Z,42.80
2017-04-06T01:57:09.254Z,42.20
2017-04-06T01:58:07.049Z,42.20
2017-04-06T01:59:05.587Z,42.20
2017-04-06T02:00:03.422Z,42.30
2017-04-06T02:01:01.227Z,42.10
2017-04-06T02:01:59.036Z,42.10
2017-04-06T02:02:56.830Z,41.70
2017-04-06T02:03:54.701Z,40.50
2017-04-06T02:04:52.505Z,40.80
2017-04-06T02:05:50.299Z,40.60
2017-04-06T02:06:48.097Z,41.00
2017-04-06T02:07:45.894Z,41.60
2017-04-06T02:08:43.733Z,41.70
2017-04-06T02:09:41.517Z,42.60
2017-04-06T02:10:39.359Z,42.30
2017-04-06T02:11:37.133Z,41.70
2017-04-06T02:12:35.711Z,42.00
2017-04-06T02:13:33.493Z,42.60
2017-04-06T02:14:31.273Z,42.20
2017-04-06T02:15:29.065Z,43.10
2017-04-06T02:16:26.845Z,43.00
2017-04-06T02:18:23.110Z,41.50
2017-04-06T02:19:20.906Z,41.00
2017-04-06T02:20:18.764Z,41.40
2017-04-06T02:21:16.574Z,40.60
2017-04-06T02:22:14.354Z,40.70
2017-04-06T02:23:12.157Z,40.70
2017-04-06T02:24:09.939Z,41.00
2017-04-06T02:25:07.749Z,40.80
2017-04-06T02:26:05.541Z,42.00
2017-04-06T02:27:04.072Z,42.30
2017-04-06T02:28:02.009Z,43.00
2017-04-06T02:28:59.825Z,42.60
2017-04-06T02:29:58.361Z,42.60
2017-04-06T02:30:56.149Z,43.30
2017-04-06T02:31:54.689Z,43.00
2017-04-06T02:32:52.472Z,42.40
2017-04-06T02:33:51.001Z,42.70
2017-04-06T02:34:48.781Z,42.60
2017-04-06T02:35:46.587Z,42.50
2017-04-06T02:36:44.365Z,42.80
2017-04-06T02:37:42.177Z,42.90
2017-04-06T02:38:39.968Z,42.00
2017-04-06T02:39:37.755Z,42.90
2017-04-06T02:40:35.569Z,43.60
2017-04-06T02:41:33.354Z,43.50
2017-04-06T02:43:29.613Z,43.10
2017-04-06T02:44:28.181Z,43.50
2017-04-06T02:45:26.733Z,43.50
2017-04-06T02:46:24.514Z,43.60
2017-04-06T02:47:23.030Z,43.60
2017-04-06T02:48:20.850Z,43.00
2017-04-06T02:49:18.753Z,44.30
2017-04-06T02:50:16.548Z,43.10
2017-04-06T02:51:15.528Z,43.30
2017-04-06T02:52:14.066Z,43.20
2017-04-06T02:53:11.893Z,42.00
2017-04-06T02:54:09.696Z,42.20
2017-04-06T02:55:07.497Z,41.70
2017-04-06T02:56:05.283Z,42.00
2017-04-06T02:57:03.062Z,42.10
2017-04-06T02:58:00.861Z,42.40
2017-04-06T02:58:58.627Z,42.50
2017-04-06T02:59:56.405Z,42.10
2017-04-06T03:00:54.940Z,42.40
2017-04-06T03:01:52.716Z,42.80
2017-04-06T03:02:50.521Z,42.40
2017-04-06T03:03:48.313Z,43.10
2017-04-06T03:04:46.094Z,42.20
2017-04-06T03:05:43.945Z,42.50
2017-04-06T03:06:41.748Z,42.10
2017-04-06T03:07:39.537Z,41.80
2017-04-06T03:08:37.318Z,42.20
2017-04-06T03:09:35.106Z,42.60
2017-04-06T03:10:33.621Z,42.70
2017-04-06T03:11:31.416Z,42.00
2017-04-06T03:12:29.189Z,42.10
2017-04-06T03:13:27.822Z,42.20
2017-04-06T03:14:26.365Z,42.00
2017-04-06T03:15:24.157Z,42.60
2017-04-06T03:17:20.434Z,42.60
2017-04-06T03:18:18.212Z,42.30
2017-04-06T03:19:16.005Z,42.70
2017-04-06T03:20:13.774Z,42.50
2017-04-06T03:21:11.576Z,42.10
2017-04-06T03:22:09.365Z,42.10
2017-04-06T03:23:07.160Z,42.50
2017-04-06T03:24:04.958Z,42.10
2017-04-06T03:25:03.500Z,41.90
2017-04-06T03:26:01.296Z,41.60
2017-04-06T03:27:57.590Z,41.70
2017-04-06T03:28:55.361Z,42.80
2017-04-06T03:29:53.157Z,42.70
2017-04-06T03:30:50.954Z,42.30
2017-04-06T03:31:48.894Z,42.70
2017-04-06T03:32:46.961Z,42.40
2017-04-06T03:33:44.856Z,41.60
2017-04-06T03:34:42.800Z,41.70
2017-04-06T03:35:40.638Z,42.10
2017-04-06T03:36:38.436Z,41.80
2017-04-06T03:37:36.450Z,41.70
2017-04-06T03:38:34.221Z,41.60
2017-04-06T03:39:32.005Z,42.20
2017-04-06T03:40:29.785Z,42.60
2017-04-06T03:41:27.584Z,42.80
2017-04-06T03:42:25.373Z,43.10
2017-04-06T03:43:23.253Z,42.70
2017-04-06T03:44:21.790Z,42.50
2017-04-06T03:45:19.561Z,42.60
2017-04-06T03:46:17.351Z,42.80
2017-04-06T03:47:15.145Z,42.80
2017-04-06T03:48:13.661Z,42.50
2017-04-06T03:49:12.189Z,43.00
2017-04-06T03:50:09.965Z,43.60
2017-04-06T03:51:07.742Z,42.90
2017-04-06T03:52:06.266Z,42.10
2017-04-06T03:53:04.045Z,42.70
2017-04-06T03:54:02.603Z,44.00
2017-04-06T03:55:00.578Z,43.20
2017-04-06T03:55:59.393Z,42.70
2017-04-06T03:56:57.177Z,42.60
2017-04-06T03:57:54.986Z,42.30
2017-04-06T03:58:52.818Z,42.90
2017-04-06T03:59:50.611Z,43.20
2017-04-06T04:00:48.772Z,42.10
2017-04-06T04:01:46.557Z,42.70
2017-04-06T04:02:44.349Z,42.40
2017-04-06T04:03:42.881Z,42.80
2017-04-06T04:04:40.741Z,42.80
2017-04-06T04:05:38.729Z,42.80
2017-04-06T04:06:37.360Z,42.80
2017-04-06T04:07:35.169Z,43.00
2017-04-06T04:08:32.957Z,43.00
2017-04-06T04:09:30.743Z,42.50
2017-04-06T04:10:28.542Z,42.70
2017-04-06T04:11:27.110Z,42.60
2017-04-06T04:12:25.661Z,42.60
2017-04-06T04:13:23.433Z,42.60
2017-04-06T04:16:18.117Z,43.00
2017-04-06T04:17:16.707Z,42.40
2017-04-06T04:18:15.265Z,42.50
2017-04-06T04:19:13.064Z,43.30
2017-04-06T04:20:10.861Z,43.30
2017-04-06T04:22:07.114Z,43.00
2017-04-06T04:23:05.647Z,42.70
2017-04-06T04:24:03.471Z,42.90
2017-04-06T04:25:01.262Z,41.60
2017-04-06T04:25:59.814Z,42.00
2017-04-06T04:26:57.624Z,41.50
2017-04-06T04:27:55.413Z,42.30
2017-04-06T04:28:53.195Z,41.70
2017-04-06T04:29:51.061Z,42.50
2017-04-06T04:30:49.590Z,41.90
2017-04-06T04:31:47.385Z,42.30
2017-04-06T04:32:45.919Z,41.20
2017-04-06T04:33:43.689Z,41.30
2017-04-06T04:34:41.465Z,42.10
2017-04-06T04:35:40.001Z,42.40
2017-04-06T04:36:37.787Z,42.70
2017-04-06T04:37:36.349Z,42.70
2017-04-06T04:38:34.180Z,42.20
2017-04-06T04:39:31.977Z,40.90
2017-04-06T04:40:29.761Z,40.90
2017-04-06T04:41:28.326Z,41.00
2017-04-06T04:42:26.897Z,41.20
2017-04-06T04:43:25.450Z,41.30
2017-04-06T04:44:23.262Z,41.00
2017-04-06T04:45:21.081Z,41.40
2017-04-06T04:46:18.883Z,42.00
2017-04-06T04:47:16.712Z,41.50
2017-04-06T04:48:15.257Z,41.90
2017-04-06T04:49:13.057Z,42.20
2017-04-06T04:50:10.968Z,41.00
2017-04-06T04:51:08.749Z,41.20
2017-04-06T04:52:07.293Z,40.80
2017-04-06T04:53:05.093Z,40.70
2017-04-06T04:54:02.917Z,40.50
2017-04-06T04:55:00.730Z,41.10
2017-04-06T04:55:58.517Z,41.30
2017-04-06T04:56:56.325Z,40.60
2017-04-06T04:57:54.168Z,40.30
2017-04-06T04:58:51.969Z,41.40
2017-04-06T04:59:49.761Z,41.00
2017-04-06T05:00:48.565Z,41.20
2017-04-06T05:01:46.340Z,40.90
2017-04-06T05:02:44.362Z,41.60
2017-04-06T05:03:42.246Z,41.50
2017-04-06T05:04:40.105Z,41.70
2017-04-06T05:05:37.912Z,41.40
2017-04-06T05:06:36.456Z,41.80
2017-04-06T05:07:34.249Z,42.10
2017-04-06T05:08:32.796Z,42.50
2017-04-06T05:09:30.618Z,42.70
2017-04-06T05:10:28.405Z,42.10
2017-04-06T05:12:24.653Z,42.40
2017-04-06T05:13:23.243Z,42.10
2017-04-06T05:14:21.042Z,41.70
2017-04-06T05:15:19.597Z,41.90
2017-04-06T05:16:17.369Z,42.10
2017-04-06T05:17:15.902Z,41.50
2017-04-06T05:18:13.688Z,42.50
2017-04-06T05:19:11.509Z,43.50
2017-04-06T05:20:09.311Z,43.00
2017-04-06T05:21:07.081Z,42.90
2017-04-06T05:22:04.894Z,42.60
2017-04-06T05:23:02.693Z,44.00
2017-04-06T05:24:00.501Z,43.10
2017-04-06T05:24:58.281Z,43.40
2017-04-06T05:25:56.075Z,43.70
2017-04-06T05:26:54.589Z,43.50
2017-04-06T05:27:52.386Z,43.00
2017-04-06T05:28:50.181Z,43.00
2017-04-06T05:29:47.974Z,43.30
2017-04-06T05:30:46.485Z,42.60
2017-04-06T05:31:45.013Z,42.90
2017-04-06T05:32:42.813Z,43.00
2017-04-06T05:33:41.339Z,42.50
2017-04-06T05:34:39.133Z,41.80
2017-04-06T05:35:37.682Z,42.70
2017-04-06T05:36:35.493Z,42.40
2017-04-06T05:37:33.290Z,42.10
2017-04-06T05:39:29.613Z,42.00
2017-04-06T05:41:26.625Z,42.00
2017-04-06T05:42:24.439Z,41.90
2017-04-06T05:43:22.212Z,42.30
2017-04-06T05:44:20.045Z,42.00
2017-04-06T05:45:17.841Z,41.40
2017-04-06T05:46:15.661Z,42.30
2017-04-06T05:47:14.181Z,42.10
2017-04-06T05:48:11.960Z,42.30
2017-04-06T05:49:09.769Z,41.90
2017-04-06T05:50:07.606Z,42.10
2017-04-06T05:51:05.423Z,42.10
2017-04-06T05:52:03.209Z,41.80
2017-04-06T05:53:01.855Z,42.20
2017-04-06T05:54:58.178Z,41.90
2017-04-06T05:56:54.533Z,42.10
2017-04-06T05:57:52.325Z,41.40
2017-04-06T05:58:50.109Z,42.20
2017-04-06T05:59:47.933Z,40.70
2017-04-06T06:00:45.742Z,40.90
2017-04-06T06:01:43.572Z,40.80
2017-04-06T06:02:41.429Z,40.60
2017-04-06T06:05:36.321Z,40.80
2017-04-06T06:06:34.188Z,40.70
2017-04-06T06:07:32.013Z,40.70
2017-04-06T06:08:29.801Z,41.70
2017-04-06T06:09:28.326Z,41.50
2017-04-06T06:10:26.160Z,41.20
2017-04-06T06:11:23.985Z,41.20
2017-04-06T06:12:21.809Z,40.60
2017-04-06T06:13:19.640Z,41.10
2017-04-06T06:14:17.450Z,41.40
2017-04-06T06:15:15.277Z,40.60
2017-04-06T06:16:13.089Z,40.60
2017-04-06T06:17:10.913Z,41.00
2017-04-06T06:18:09.463Z,41.50
2017-04-06T06:19:07.265Z,41.40
2017-04-06T06:20:05.071Z,41.70
2017-04-06T06:21:02.853Z,41.90
2017-04-06T06:22:00.653Z,41.60
2017-04-06T06:22:58.493Z,41.10
2017-04-06T06:23:57.017Z,41.40
2017-04-06T06:24:54.846Z,40.70
2017-04-06T06:25:52.749Z,41.50
2017-04-06T06:26:50.692Z,40.60
2017-04-06T06:27:48.649Z,40.20
2017-04-06T06:28:46.480Z,40.50
2017-04-06T06:29:44.273Z,41.00
2017-04-06T06:30:42.054Z,40.20
2017-04-06T06:31:39.877Z,41.00
2017-04-06T06:32:37.658Z,41.20
2017-04-06T06:34:33.913Z,41.20
2017-04-06T06:35:31.718Z,41.50
2017-04-06T06:36:29.521Z,41.00
2017-04-06T06:37:27.349Z,40.90
2017-04-06T06:38:25.158Z,41.40
2017-04-06T06:39:22.957Z,41.40
2017-04-06T06:41:19.202Z,40.80
2017-04-06T06:42:17.733Z,41.30
2017-04-06T06:43:15.537Z,41.50
2017-04-06T06:44:14.114Z,41.70
2017-04-06T06:45:11.917Z,41.70
2017-04-06T06:46:09.732Z,41.80
2017-04-06T06:47:07.553Z,42.00
2017-04-06T06:48:05.362Z,41.10
2017-04-06T06:49:03.180Z,41.00
2017-04-06T06:50:04.738Z,39.90
2017-04-06T06:51:02.652Z,40.60
2017-04-06T06:52:00.579Z,41.60
2017-04-06T06:52:58.390Z,41.20
2017-04-06T06:53:56.926Z,41.00
2017-04-06T06:54:54.824Z,39.50
2017-04-06T06:55:53.477Z,39.50
2017-04-06T06:56:51.282Z,39.80
2017-04-06T06:57:49.090Z,39.80
2017-04-06T06:58:46.883Z,41.10
2017-04-06T06:59:44.661Z,40.00
2017-04-06T07:00:42.453Z,40.60
2017-04-06T07:02:38.917Z,41.70
2017-04-06T07:03:36.737Z,40.80
2017-04-06T07:05:33.217Z,40.30
2017-04-06T07:06:31.023Z,39.90
2017-04-06T07:07:28.837Z,40.20
2017-04-06T07:08:26.613Z,39.50
2017-04-06T07:09:25.146Z,39.60
2017-04-06T07:10:22.944Z,39.60
2017-04-06T07:11:20.828Z,39.60
2017-04-06T07:12:19.449Z,40.50
2017-04-06T07:13:17.246Z,41.10
2017-04-06T07:14:15.161Z,40.60
2017-04-06T07:15:13.041Z,40.40
2017-04-06T07:16:10.921Z,39.30
2017-04-06T07:17:08.749Z,39.20
2017-04-06T07:18:06.605Z,39.20
2017-04-06T07:19:04.473Z,39.30
2017-04-06T07:20:02.318Z,38.70
2017-04-06T07:21:00.173Z,39.50
2017-04-06T07:21:58.018Z,37.90
2017-04-06T07:22:55.841Z,39.30
2017-04-06T07:23:53.633Z,38.70
2017-04-06T07:24:51.421Z,38.90
2017-04-06T07:25:49.245Z,38.60
2017-04-06T07:26:47.030Z,40.30
2017-04-06T07:27:44.821Z,39.20
2017-04-06T07:28:42.596Z,39.60
2017-04-06T07:29:40.395Z,39.70
2017-04-06T07:30:38.225Z,38.40
2017-04-06T07:31:36.085Z,38.00
2017-04-06T07:32:34.006Z,38.80
2017-04-06T07:33:31.826Z,37.60
2017-04-06T07:34:29.633Z,38.90
2017-04-06T07:35:27.481Z,37.00
2017-04-06T07:36:25.277Z,37.40
2017-04-06T07:38:21.593Z,39.60
2017-04-06T07:39:20.155Z,38.50
2017-04-06T07:40:17.977Z,36.80
2017-04-06T07:41:15.774Z,37.30
2017-04-06T07:42:13.613Z,38.20
2017-04-06T07:43:11.453Z,38.20
2017-04-06T07:44:09.295Z,38.20
2017-04-06T07:45:07.228Z,39.10
2017-04-06T07:46:05.085Z,39.70
2017-04-06T07:47:02.894Z,38.10
2017-04-06T07:48:00.734Z,38.40
2017-04-06T07:48:58.543Z,38.20
2017-04-06T07:50:55.534Z,37.80
2017-04-06T07:51:53.305Z,37.70
2017-04-06T07:52:51.101Z,38.30
2017-04-06T07:53:48.893Z,37.50
2017-04-06T07:54:46.681Z,37.20
2017-04-06T07:55:45.490Z,37.00
2017-04-06T07:56:43.310Z,37.10
2017-04-06T07:57:41.122Z,36.00
2017-04-06T07:58:38.913Z,35.00
2017-04-06T07:59:36.753Z,36.80
2017-04-06T08:00:34.609Z,33.70
2017-04-06T08:01:32.424Z,32.40
2017-04-06T08:02:30.978Z,35.00
2017-04-06T08:03:28.801Z,32.80
2017-04-06T08:04:26.583Z,30.80
2017-04-06T08:05:25.146Z,31.30
2017-04-06T08:06:22.937Z,31.80
2017-04-06T08:07:21.501Z,33.10
2017-04-06T08:08:19.286Z,33.10
2017-04-06T08:09:17.073Z,33.10
2017-04-06T08:10:14.861Z,33.80
2017-04-06T08:12:11.133Z,32.30
2017-04-06T08:13:08.917Z,31.50
2017-04-06T08:14:06.693Z,33.50
2017-04-06T08:16:03.758Z,33.50
2017-04-06T08:17:02.345Z,33.00
2017-04-06T08:18:00.178Z,33.30
2017-04-06T08:18:58.039Z,33.30
2017-04-06T08:19:56.565Z,32.40
2017-04-06T08:20:54.430Z,32.60
2017-04-06T08:21:52.274Z,33.60
2017-04-06T08:22:50.073Z,32.80
2017-04-06T08:23:48.393Z,30.80
2017-04-06T08:24:46.200Z,31.00
2017-04-06T08:25:44.060Z,30.50
2017-04-06T08:26:42.608Z,31.00
2017-04-06T08:27:40.402Z,30.00
2017-04-06T08:28:38.945Z,31.40
2017-04-06T08:29:36.806Z,33.10
2017-04-06T08:30:34.650Z,33.50
2017-04-06T08:31:32.493Z,30.50
2017-04-06T08:32:31.046Z,32.40
2017-04-06T08:33:29.658Z,31.90
2017-04-06T08:35:25.945Z,32.10
2017-04-06T08:36:23.744Z,33.50
2017-04-06T08:37:21.561Z,32.80
2017-04-06T08:38:19.341Z,33.90
2017-04-06T08:40:16.370Z,32.40
2017-04-06T08:41:14.213Z,33.90
2017-04-06T08:42:12.040Z,33.10
2017-04-06T08:43:09.904Z,35.90
2017-04-06T08:44:07.681Z,33.50
2017-04-06T08:45:05.497Z,31.50
2017-04-06T08:46:03.298Z,33.70
2017-04-06T08:47:01.106Z,35.20
2017-04-06T08:47:59.633Z,35.20
2017-04-06T08:48:57.425Z,33.80
2017-04-06T08:49:55.965Z,33.20
2017-04-06T08:50:53.781Z,34.00
2017-04-06T08:51:51.586Z,34.30
2017-04-06T08:52:49.393Z,34.10
2017-04-06T08:53:47.229Z,34.70
2017-04-06T08:54:45.173Z,34.50
2017-04-06T08:55:43.178Z,35.40
2017-04-06T08:56:42.211Z,35.60
2017-04-06T08:57:40.213Z,34.60
2017-04-06T08:58:37.994Z,34.40
2017-04-06T08:59:35.829Z,31.70
2017-04-06T09:00:33.636Z,33.80
2017-04-06T09:01:31.517Z,33.80
2017-04-06T09:02:30.045Z,34.30
2017-04-06T09:03:27.838Z,33.40
2017-04-06T09:04:26.365Z,32.10
2017-04-06T09:05:24.168Z,33.00
2017-04-06T09:06:22.710Z,33.40
2017-04-06T09:07:20.484Z,34.40
2017-04-06T09:08:19.037Z,33.20
2017-04-06T09:09:16.829Z,33.30
2017-04-06T09:10:14.633Z,33.40
2017-04-06T09:11:13.178Z,32.30
2017-04-06T09:12:10.953Z,32.60
2017-04-06T09:13:08.843Z,33.60
2017-04-06T09:14:06.641Z,34.50
2017-04-06T09:15:04.477Z,33.60
2017-04-06T09:16:02.297Z,33.60
2017-04-06T09:17:58.542Z,32.00
2017-04-06T09:18:57.073Z,32.70
2017-04-06T09:19:54.936Z,35.60
2017-04-06T09:20:53.481Z,34.50
2017-04-06T09:21:51.361Z,31.40
2017-04-06T09:22:49.161Z,34.50
2017-04-06T09:23:46.967Z,35.00
2017-04-06T09:24:44.749Z,34.80
2017-04-06T09:25:42.555Z,32.30
2017-04-06T09:26:40.341Z,33.20
2017-04-06T09:27:38.877Z,35.80
2017-04-06T09:28:37.377Z,35.50
2017-04-06T09:29:35.161Z,33.00
2017-04-06T09:30:33.078Z,32.00
2017-04-06T09:31:30.877Z,32.60
2017-04-06T09:32:28.701Z,33.00
2017-04-06T09:33:26.497Z,33.90
2017-04-06T09:34:24.281Z,33.20
2017-04-06T09:35:22.090Z,33.50
2017-04-06T09:36:19.961Z,33.80
2017-04-06T09:37:17.782Z,33.50
2017-04-06T09:38:15.649Z,32.20
2017-04-06T09:40:12.769Z,31.80
2017-04-06T09:41:10.582Z,32.00
2017-04-06T09:42:08.429Z,33.00
2017-04-06T09:43:07.109Z,32.70
2017-04-06T09:44:05.061Z,32.90
2017-04-06T09:45:02.951Z,33.90
2017-04-06T09:46:00.814Z,34.80
2017-04-06T09:46:58.638Z,33.40
2017-04-06T09:47:57.271Z,32.60
2017-04-06T09:48:55.857Z,33.10
2017-04-06T09:50:52.881Z,32.60
2017-04-06T09:52:49.205Z,34.10
2017-04-06T09:53:47.005Z,33.70
2017-04-06T09:54:44.787Z,33.60
2017-04-06T09:55:42.594Z,33.70
2017-04-06T09:56:40.429Z,32.60
2017-04-06T09:57:38.198Z,35.80
2017-04-06T09:59:34.465Z,32.00
2017-04-06T10:00:32.409Z,32.80
2017-04-06T10:01:31.007Z,32.60
2017-04-06T10:02:28.789Z,35.60
2017-04-06T10:03:26.581Z,33.50
2017-04-06T10:04:24.361Z,33.70
2017-04-06T10:05:22.157Z,33.30
2017-04-06T10:06:19.954Z,32.70
2017-04-06T10:07:18.481Z,33.60
2017-04-06T10:08:16.281Z,35.70
2017-04-06T10:09:14.809Z,33.90
2017-04-06T10:10:12.625Z,33.70
2017-04-06T10:11:11.193Z,33.20
2017-04-06T10:12:09.745Z,32.50
2017-04-06T10:13:07.525Z,33.40
2017-04-06T10:14:05.323Z,34.60
2017-04-06T10:15:03.137Z,34.30
2017-04-06T10:16:00.936Z,33.10
2017-04-06T10:16:58.741Z,32.50
2017-04-06T10:17:56.645Z,33.00
2017-04-06T10:18:54.485Z,35.20
2017-04-06T10:19:52.313Z,32.80
2017-04-06T10:20:51.329Z,34.80
2017-04-06T10:21:49.142Z,34.20
2017-04-06T10:22:46.969Z,34.50
2017-04-06T10:23:44.782Z,33.20
2017-04-06T10:24:42.566Z,33.50
2017-04-06T10:25:40.362Z,33.80
2017-04-06T10:26:39.610Z,34.80
2017-04-06T10:27:37.543Z,36.40
2017-04-06T10:28:35.325Z,34.40
2017-04-06T10:29:33.141Z,32.20
2017-04-06T10:30:30.938Z,31.90
2017-04-06T10:31:28.778Z,36.10
2017-04-06T10:32:26.683Z,36.40
2017-04-06T10:33:24.461Z,35.00
2017-04-06T10:34:22.977Z,32.40
2017-04-06T10:35:20.842Z,33.60
2017-04-06T10:36:18.629Z,34.60
2017-04-06T10:37:16.417Z,32.90
2017-04-06T10:38:14.214Z,33.30
2017-04-06T10:39:12.025Z,32.00
2017-04-06T10:40:09.860Z,32.30
2017-04-06T10:41:07.796Z,32.60
2017-04-06T10:43:04.128Z,33.90
2017-04-06T10:44:01.933Z,33.10
2017-04-06T10:44:59.733Z,33.50
2017-04-06T10:46:56.090Z,35.00
2017-04-06T10:47:53.897Z,33.10
2017-04-06T10:48:51.701Z,33.30
2017-04-06T10:49:50.253Z,32.70
2017-04-06T10:50:48.062Z,34.50
2017-04-06T10:51:45.981Z,35.40
2017-04-06T10:52:43.805Z,34.40
2017-04-06T10:54:40.849Z,31.80
2017-04-06T10:55:38.746Z,33.90
2017-04-06T10:56:36.579Z,34.80
2017-04-06T10:57:34.477Z,34.50
2017-04-06T10:58:32.311Z,34.90
2017-04-06T10:59:30.901Z,35.30
2017-04-06T11:00:28.898Z,34.20
2017-04-06T11:02:25.286Z,33.50
2017-04-06T11:03:23.121Z,31.30
2017-04-06T11:04:21.697Z,32.90
2017-04-06T11:05:19.481Z,33.40
2017-04-06T11:06:17.734Z,33.60
2017-04-06T11:07:15.534Z,32.30
2017-04-06T11:08:13.349Z,33.30
2017-04-06T11:09:11.154Z,34.30
2017-04-06T11:10:08.978Z,32.40
2017-04-06T11:11:07.097Z,33.40
2017-04-06T11:12:05.022Z,33.30
2017-04-06T11:13:03.592Z,34.40
2017-04-06T11:14:02.138Z,36.30
2017-04-06T11:14:59.926Z,35.20
2017-04-06T11:15:57.869Z,34.80
2017-04-06T11:16:55.885Z,35.80
2017-04-06T11:17:53.805Z,33.30
2017-04-06T11:18:51.611Z,33.00
2017-04-06T11:19:49.525Z,34.80
2017-04-06T11:20:47.429Z,34.10
2017-04-06T11:21:45.534Z,34.80
2017-04-06T11:23:42.599Z,32.90
2017-04-06T11:24:40.510Z,33.50
2017-04-06T11:25:38.313Z,33.10
2017-04-06T11:26:36.135Z,35.90
2017-04-06T11:27:33.933Z,35.50
2017-04-06T11:28:31.727Z,34.30
2017-04-06T11:29:29.512Z,31.90
2017-04-06T11:30:27.385Z,31.40
2017-04-06T11:31:25.212Z,30.90
2017-04-06T11:32:23.050Z,33.80
2017-04-06T11:33:20.929Z,33.60
2017-04-06T11:34:19.553Z,34.20
2017-04-06T11:35:17.341Z,33.90
2017-04-06T11:36:15.773Z,33.60
2017-04-06T11:37:14.334Z,34.30
2017-04-06T11:38:12.122Z,33.20
2017-04-06T11:39:10.025Z,33.70
2017-04-06T11:40:07.925Z,35.20
2017-04-06T11:41:05.921Z,32.20
2017-04-06T11:42:03.734Z,34.30
2017-04-06T11:43:02.277Z,32.40
2017-04-06T11:44:00.081Z,34.00
2017-04-06T11:44:57.893Z,34.10
2017-04-06T11:45:55.698Z,35.40
2017-04-06T11:46:53.712Z,36.30
2017-04-06T11:47:51.813Z,35.60
2017-04-06T11:48:49.646Z,32.10
2017-04-06T11:49:47.442Z,34.30
2017-04-06T11:51:43.772Z,33.70
2017-04-06T11:53:40.129Z,35.50
2017-04-06T11:54:37.943Z,35.70
2017-04-06T11:55:35.775Z,34.90
2017-04-06T11:56:33.609Z,34.30
2017-04-06T11:57:31.422Z,33.50
2017-04-06T11:58:29.248Z,33.20
2017-04-06T11:59:27.033Z,33.30
2017-04-06T12:00:24.880Z,32.10
2017-04-06T12:01:22.685Z,31.80
2017-04-06T12:02:20.541Z,32.30
2017-04-06T12:03:19.075Z,35.20
2017-04-06T12:04:16.849Z,35.80
2017-04-06T12:05:14.681Z,35.10
2017-04-06T12:06:12.489Z,34.00
2017-04-06T12:07:10.321Z,34.30
2017-04-06T12:08:08.320Z,33.90
2017-04-06T12:09:06.145Z,35.10
2017-04-06T12:10:03.931Z,30.80
2017-04-06T12:11:01.742Z,34.10
2017-04-06T12:11:59.597Z,33.70
2017-04-06T12:13:56.151Z,34.40
2017-04-06T12:14:53.941Z,34.20
2017-04-06T12:15:51.726Z,33.40
2017-04-06T12:16:49.505Z,32.20
2017-04-06T12:17:47.313Z,33.80
2017-04-06T12:18:45.090Z,31.60
2017-04-06T12:19:42.913Z,34.40
2017-04-06T12:20:40.913Z,34.70
2017-04-06T12:21:39.590Z,33.60
2017-04-06T12:22:37.466Z,33.40
2017-04-06T12:23:35.369Z,32.00
2017-04-06T12:24:33.220Z,33.80
2017-04-06T12:25:31.076Z,32.00
2017-04-06T12:26:28.937Z,32.50
2017-04-06T12:27:26.790Z,33.40
2017-04-06T12:28:24.711Z,32.50
2017-04-06T12:29:22.517Z,33.10
2017-04-06T12:30:20.689Z,33.50
2017-04-06T12:31:18.522Z,34.30
2017-04-06T12:32:16.458Z,35.10
2017-04-06T12:33:15.126Z,33.20
2017-04-06T12:34:12.971Z,32.90
2017-04-06T12:35:11.509Z,32.30
2017-04-06T12:36:09.281Z,33.00
2017-04-06T12:37:07.061Z,33.70
2017-04-06T12:38:05.617Z,34.80
2017-04-06T12:39:03.981Z,33.40
2017-04-06T12:41:00.313Z,32.60
2017-04-06T12:42:56.565Z,32.70
2017-04-06T12:43:55.124Z,34.00
2017-04-06T12:44:53.673Z,33.90
2017-04-06T12:45:51.446Z,32.80
2017-04-06T12:46:49.973Z,32.70
2017-04-06T12:47:47.749Z,33.30
2017-04-06T12:48:45.527Z,33.90
2017-04-06T12:49:44.061Z,33.00
2017-04-06T12:50:41.869Z,33.90
2017-04-06T12:51:40.386Z,32.30
2017-04-06T12:52:38.177Z,33.50
2017-04-06T12:53:35.985Z,35.00
2017-04-06T12:54:33.766Z,35.10
2017-04-06T12:55:32.294Z,33.60
2017-04-06T12:56:30.093Z,34.40
2017-04-06T12:57:28.653Z,34.40
2017-04-06T12:58:26.460Z,33.60
2017-04-06T12:59:24.237Z,34.20
2017-04-06T13:00:22.273Z,33.40
2017-04-06T13:01:20.076Z,34.30
2017-04-06T13:02:17.877Z,34.40
2017-04-06T13:03:16.478Z,32.40
2017-04-06T13:04:14.284Z,32.80
2017-04-06T13:06:10.598Z,32.30
2017-04-06T13:07:09.139Z,34.70
2017-04-06T13:08:06.937Z,33.30
2017-04-06T13:10:03.323Z,31.80
2017-04-06T13:11:01.140Z,34.10
2017-04-06T13:11:59.718Z,34.50